createdAt,value
2018-04-12T00:01:20.989Z,53.97
2018-04-12T00:03:48.595Z,57.73
2018-04-12T00:06:16.173Z,52.07
2018-04-12T00:08:43.780Z,51.80
2018-04-12T00:11:11.358Z,56.40
2018-04-12T00:13:38.950Z,57.37
2018-04-12T00:16:06.521Z,57.07
2018-04-12T00:18:34.106Z,52.83
2018-04-12T00:21:01.812Z,58.20
2018-04-12T00:23:29.462Z,59.00
2018-04-12T00:25:57.035Z,58.47
2018-04-12T00:28:24.616Z,50.10
2018-04-12T00:30:52.198Z,57.93
2018-04-12T00:33:19.813Z,55.80
2018-04-12T00:35:47.405Z,53.37
2018-04-12T00:38:15.015Z,55.93
2018-04-12T00:40:42.601Z,55.33
2018-04-12T00:43:10.263Z,54.17
2018-04-12T00:45:37.843Z,57.73
2018-04-12T00:48:05.432Z,54.80
2018-04-12T00:50:33.026Z,56.43
2018-04-12T00:53:00.617Z,56.27
2018-04-12T00:55:28.207Z,54.87
2018-04-12T00:57:55.818Z,55.17
2018-04-12T01:00:23.376Z,51.37
2018-04-12T01:02:50.940Z,51.17
2018-04-12T01:05:18.512Z,52.77
2018-04-12T01:07:46.108Z,45.07
2018-04-12T01:10:13.670Z,48.80
2018-04-12T01:12:41.272Z,47.30
2018-04-12T01:15:08.858Z,47.97
2018-04-12T01:17:36.439Z,50.70
2018-04-12T01:20:04.148Z,44.47
2018-04-12T01:22:31.708Z,47.10
2018-04-12T01:24:59.293Z,44.30
2018-04-12T01:27:27.167Z,42.60
2018-04-12T01:29:54.729Z,42.30
2018-04-12T01:32:22.460Z,37.97
2018-04-12T01:34:50.050Z,42.00
2018-04-12T01:37:17.613Z,41.43
2018-04-12T01:39:45.205Z,39.00
2018-04-12T01:42:12.768Z,40.13
2018-04-12T01:44:40.356Z,39.63
2018-04-12T01:47:07.919Z,39.53
2018-04-12T01:49:35.485Z,39.73
2018-04-12T01:52:03.076Z,38.27
2018-04-12T01:54:30.648Z,36.77
2018-04-12T01:56:58.277Z,34.37
2018-04-12T01:59:26.083Z,37.20
2018-04-12T02:01:53.702Z,37.70
2018-04-12T02:04:21.268Z,35.50
2018-04-12T02:06:48.954Z,37.53
2018-04-12T02:09:16.590Z,37.47
2018-04-12T02:11:44.451Z,37.60
2018-04-12T02:14:12.065Z,35.27
2018-04-12T02:16:39.636Z,35.17
2018-04-12T02:19:07.235Z,36.50
2018-04-12T02:21:34.793Z,35.40
2018-04-12T02:24:02.387Z,34.70
2018-04-12T02:26:30.004Z,34.43
2018-04-12T02:28:57.713Z,35.80
2018-04-12T02:31:25.289Z,31.93
2018-04-12T02:33:52.907Z,33.63
2018-04-12T02:36:20.500Z,31.97
2018-04-12T02:38:48.069Z,35.50
2018-04-12T02:41:15.653Z,34.50
2018-04-12T02:43:43.260Z,33.97
2018-04-12T02:46:10.824Z,33.40
2018-04-12T02:48:38.436Z,31.43
2018-04-12T02:51:06.076Z,34.90
2018-04-12T02:53:33.642Z,30.87
2018-04-12T02:56:01.196Z,31.37
2018-04-12T02:58:28.757Z,31.00
2018-04-12T03:00:56.343Z,33.47
2018-04-12T03:03:23.913Z,33.30
2018-04-12T03:05:51.469Z,32.27
2018-04-12T03:08:19.203Z,31.30
2018-04-12T03:10:46.812Z,31.27
2018-04-12T03:13:14.446Z,30.93
2018-04-12T03:15:42.024Z,33.63
2018-04-12T03:18:09.581Z,32.90
2018-04-12T03:20:37.133Z,35.53
2018-04-12T03:23:04.714Z,31.93
2018-04-12T03:25:32.327Z,34.20
2018-04-12T03:30:41.851Z,32.50
2018-04-12T03:33:09.410Z,33.90
2018-04-12T03:35:37.071Z,32.33
2018-04-12T03:38:04.675Z,30.33
2018-04-12T03:40:32.349Z,33.67
2018-04-12T03:42:59.954Z,33.37
2018-04-12T03:45:27.548Z,34.90
2018-04-12T03:47:55.121Z,31.67
2018-04-12T03:50:22.730Z,33.97
2018-04-12T03:52:50.332Z,32.63
2018-04-12T03:55:17.899Z,32.63
2018-04-12T03:57:45.454Z,34.80
2018-04-12T04:00:20.145Z,32.33
2018-04-12T04:02:48.032Z,36.30
2018-04-12T04:05:15.771Z,34.07
2018-04-12T04:07:43.591Z,35.33
2018-04-12T04:10:11.447Z,34.97
2018-04-12T04:12:39.014Z,34.00
2018-04-12T04:15:27.018Z,32.43
2018-04-12T04:18:06.428Z,34.30
2018-04-12T04:20:45.864Z,34.50
2018-04-12T04:23:13.490Z,35.03
2018-04-12T04:25:41.322Z,35.03
2018-04-12T04:28:08.904Z,29.90
2018-04-12T04:30:36.451Z,32.83
2018-04-12T04:33:04.032Z,34.43
2018-04-12T04:35:31.601Z,37.30
2018-04-12T04:38:01.951Z,35.10
2018-04-12T04:40:29.761Z,35.20
2018-04-12T04:42:57.328Z,35.97
2018-04-12T04:45:24.898Z,32.63
2018-04-12T04:47:52.434Z,37.43
2018-04-12T04:50:19.998Z,35.37
2018-04-12T04:52:47.542Z,35.80
2018-04-12T04:55:15.081Z,36.20
2018-04-12T04:57:42.626Z,37.00
2018-04-12T05:00:10.195Z,38.70
2018-04-12T05:02:37.815Z,37.07
2018-04-12T05:05:05.400Z,36.90
2018-04-12T05:07:32.991Z,35.10
2018-04-12T05:10:00.543Z,40.13
2018-04-12T05:12:28.097Z,40.57
2018-04-12T05:14:55.648Z,33.17
2018-04-12T05:17:23.190Z,37.70
2018-04-12T05:19:50.746Z,39.03
2018-04-12T05:22:18.333Z,36.73
2018-04-12T05:24:45.885Z,42.67
2018-04-12T05:27:13.469Z,40.53
2018-04-12T05:29:41.031Z,39.23
2018-04-12T05:32:09.679Z,42.23
2018-04-12T05:34:37.351Z,42.13
2018-04-12T05:37:04.908Z,40.50
2018-04-12T05:39:32.648Z,40.27
2018-04-12T05:42:00.210Z,37.53
2018-04-12T05:44:28.044Z,40.37
2018-04-12T05:46:55.608Z,42.33
2018-04-12T05:49:23.455Z,42.20
2018-04-12T05:51:51.038Z,42.73
2018-04-12T05:54:18.606Z,37.13
2018-04-12T05:56:46.340Z,43.33
2018-04-12T05:59:13.930Z,41.33
2018-04-12T06:01:41.517Z,43.23
2018-04-12T06:04:09.063Z,43.53
2018-04-12T06:06:36.650Z,43.03
2018-04-12T06:09:04.208Z,44.20
2018-04-12T06:11:31.820Z,45.63
2018-04-12T06:13:59.569Z,43.57
2018-04-12T06:16:27.233Z,42.23
2018-04-12T06:18:54.823Z,45.50
2018-04-12T06:21:22.417Z,47.27
2018-04-12T06:23:49.967Z,42.70
2018-04-12T06:26:17.537Z,47.47
2018-04-12T06:28:45.104Z,49.07
2018-04-12T06:31:12.763Z,45.83
2018-04-12T06:33:40.322Z,48.50
2018-04-12T06:36:07.887Z,44.67
2018-04-12T06:38:35.513Z,50.33
2018-04-12T06:41:03.395Z,44.77
2018-04-12T06:43:31.010Z,42.83
2018-04-12T06:45:58.593Z,44.77
2018-04-12T06:48:26.161Z,45.17
2018-04-12T06:50:53.740Z,48.23
2018-04-12T06:53:21.436Z,48.20
2018-04-12T06:55:49.755Z,48.60
2018-04-12T06:58:17.301Z,45.87
2018-04-12T07:00:44.864Z,49.73
2018-04-12T07:03:12.466Z,42.67
2018-04-12T07:05:40.041Z,51.27
2018-04-12T07:08:07.608Z,48.30
2018-04-12T07:10:35.378Z,49.80
2018-04-12T07:13:03.158Z,51.93
2018-04-12T07:15:30.715Z,47.43
2018-04-12T07:17:58.358Z,50.07
2018-04-12T07:20:25.902Z,51.90
2018-04-12T07:22:53.476Z,51.67
2018-04-12T07:25:21.057Z,52.53
2018-04-12T07:27:48.697Z,52.27
2018-04-12T07:30:16.286Z,52.20
2018-04-12T07:32:43.966Z,51.03
2018-04-12T07:35:11.577Z,52.37
2018-04-12T07:37:39.165Z,50.43
2018-04-12T07:40:06.914Z,51.90
2018-04-12T07:42:34.490Z,51.23
2018-04-12T07:45:02.251Z,51.03
2018-04-12T07:47:29.829Z,46.70
2018-04-12T07:49:57.420Z,54.33
2018-04-12T07:52:25.066Z,51.63
2018-04-12T07:54:52.693Z,52.60
2018-04-12T07:57:20.315Z,53.43
2018-04-12T07:59:48.368Z,50.43
2018-04-12T08:02:15.963Z,51.23
2018-04-12T08:04:43.553Z,52.40
2018-04-12T08:07:11.255Z,51.20
2018-04-12T08:09:38.827Z,51.67
2018-04-12T08:12:06.445Z,52.50
2018-04-12T08:14:34.133Z,51.97
2018-04-12T08:17:01.837Z,53.33
2018-04-12T08:19:29.620Z,50.53
2018-04-12T08:21:57.255Z,52.80
2018-04-12T08:24:24.844Z,52.67
2018-04-12T08:26:52.561Z,51.00
2018-04-12T08:29:20.168Z,50.73
2018-04-12T08:31:47.762Z,44.07
2018-04-12T08:34:15.452Z,48.80
2018-04-12T08:36:43.109Z,49.33
2018-04-12T08:39:10.796Z,48.70
2018-04-12T08:41:38.434Z,49.63
2018-04-12T08:44:06.039Z,47.30
2018-04-12T08:46:33.771Z,48.27
2018-04-12T08:49:01.477Z,46.87
2018-04-12T08:51:29.174Z,47.07
2018-04-12T08:53:56.898Z,49.60
2018-04-12T08:56:24.644Z,48.87
2018-04-12T08:58:52.291Z,47.63
2018-04-12T09:01:19.958Z,42.27
2018-04-12T09:03:47.628Z,43.50
2018-04-12T09:06:15.207Z,41.93
2018-04-12T09:08:43.092Z,46.00
2018-04-12T09:11:10.726Z,46.30
2018-04-12T09:13:39.304Z,45.83
2018-04-12T09:16:06.941Z,39.47
2018-04-12T09:18:34.557Z,45.90
2018-04-12T09:21:02.128Z,45.70
2018-04-12T09:23:30.094Z,48.60
2018-04-12T09:25:58.787Z,47.23
2018-04-12T09:28:26.383Z,48.77
2018-04-12T09:30:54.011Z,45.57
2018-04-12T09:33:21.665Z,47.87
2018-04-12T09:35:49.291Z,48.63
2018-04-12T09:38:16.884Z,48.50
2018-04-12T09:40:44.539Z,46.67
2018-04-12T09:43:12.169Z,47.73
2018-04-12T09:45:39.796Z,47.27
2018-04-12T09:48:07.394Z,48.67
2018-04-12T09:50:35.243Z,47.33
2018-04-12T09:53:03.027Z,47.30
2018-04-12T09:55:30.729Z,45.83
2018-04-12T09:58:13.608Z,45.80
2018-04-12T10:00:41.381Z,43.90
2018-04-12T10:03:13.679Z,43.50
2018-04-12T10:05:46.957Z,41.37
2018-04-12T10:08:20.271Z,42.00
2018-04-12T10:10:47.932Z,41.73
2018-04-12T10:13:15.516Z,40.40
2018-04-12T10:15:43.104Z,37.60
2018-04-12T10:18:10.688Z,37.67
2018-04-12T10:20:38.297Z,36.97
2018-04-12T10:23:06.858Z,36.90
2018-04-12T10:25:34.588Z,36.63
2018-04-12T10:28:02.231Z,35.87
2018-04-12T10:30:29.798Z,35.33
2018-04-12T10:32:57.614Z,36.03
2018-04-12T10:35:25.211Z,33.23
2018-04-12T10:37:52.828Z,32.03
2018-04-12T10:40:20.482Z,32.80
2018-04-12T10:42:48.198Z,33.20
2018-04-12T10:45:15.874Z,29.87
2018-04-12T10:47:43.494Z,32.57
2018-04-12T10:50:11.281Z,32.27
2018-04-12T10:52:40.054Z,31.10
2018-04-12T10:55:07.735Z,30.50
2018-04-12T10:57:35.380Z,31.10
2018-04-12T11:00:03.009Z,30.40
2018-04-12T11:02:30.668Z,30.47
2018-04-12T11:04:58.346Z,28.43
2018-04-12T11:07:25.972Z,29.27
2018-04-12T11:09:53.633Z,29.40
2018-04-12T11:12:21.255Z,28.33
2018-04-12T11:14:48.991Z,27.63
2018-04-12T11:17:16.668Z,27.10
2018-04-12T11:19:44.329Z,26.83
2018-04-12T11:22:12.024Z,27.13
2018-04-12T11:24:39.645Z,28.53
2018-04-12T11:27:07.229Z,26.63
2018-04-12T11:29:34.796Z,26.10
2018-04-12T11:32:02.423Z,27.37
2018-04-12T11:34:30.146Z,25.83
2018-04-12T11:36:57.891Z,26.27
2018-04-12T11:39:25.591Z,25.83
2018-04-12T11:41:53.222Z,26.53
2018-04-12T11:44:21.014Z,26.50
2018-04-12T11:46:48.636Z,26.97
2018-04-12T11:49:16.315Z,27.97
2018-04-12T11:51:44.055Z,26.57
2018-04-12T11:54:11.661Z,25.97
2018-04-12T11:56:39.497Z,26.63
2018-04-12T11:59:07.342Z,25.77
2018-04-12T12:01:34.908Z,26.63
2018-04-12T12:04:02.590Z,25.43
2018-04-12T12:06:30.184Z,27.57
2018-04-12T12:08:58.017Z,26.43
2018-04-12T12:11:25.721Z,25.93
2018-04-12T12:13:54.002Z,26.53
2018-04-12T12:16:21.859Z,25.40
2018-04-12T12:18:49.673Z,25.20
2018-04-12T12:21:17.352Z,25.27
2018-04-12T12:23:45.168Z,24.27
2018-04-12T12:26:12.963Z,23.77
2018-04-12T12:28:40.538Z,23.97
2018-04-12T12:31:08.198Z,23.70
2018-04-12T12:33:35.976Z,23.73
2018-04-12T12:36:03.520Z,25.80
2018-04-12T12:38:31.084Z,23.40
2018-04-12T12:40:58.880Z,21.80
2018-04-12T12:43:26.569Z,21.53
2018-04-12T12:45:54.137Z,21.77
2018-04-12T12:48:21.777Z,21.33
2018-04-12T12:50:49.443Z,21.13
2018-04-12T12:53:17.134Z,22.40
2018-04-12T12:55:44.821Z,20.83
2018-04-12T12:58:12.464Z,21.40
2018-04-12T13:00:40.100Z,20.13
2018-04-12T13:03:07.922Z,18.47
2018-04-12T13:05:35.738Z,20.17
2018-04-12T13:08:03.540Z,18.73
2018-04-12T13:10:31.207Z,19.30
2018-04-12T13:12:58.945Z,17.17
2018-04-12T13:15:26.737Z,17.17
2018-04-12T13:17:54.327Z,15.27
2018-04-12T13:20:21.905Z,16.13
2018-04-12T13:22:50.645Z,14.97
2018-04-12T13:25:22.490Z,16.30
2018-04-12T13:27:50.106Z,13.80
2018-04-12T13:30:17.765Z,14.30
2018-04-12T13:32:45.414Z,13.97
2018-04-12T13:35:13.004Z,14.17
2018-04-12T13:37:40.653Z,14.43
2018-04-12T13:40:08.311Z,13.87
2018-04-12T13:42:36.021Z,13.30
2018-04-12T13:45:03.720Z,12.60
2018-04-12T13:47:31.363Z,13.10
2018-04-12T13:49:58.992Z,11.37
2018-04-12T13:52:26.717Z,11.63
2018-04-12T13:54:54.418Z,9.90
2018-04-12T13:57:22.188Z,9.93
2018-04-12T13:59:49.738Z,10.30
2018-04-12T14:02:17.719Z,9.73
2018-04-12T14:04:49.142Z,9.37
2018-04-12T14:07:16.775Z,9.30
2018-04-12T14:09:44.606Z,9.60
2018-04-12T14:12:12.329Z,9.43
2018-04-12T14:14:39.902Z,10.47
2018-04-12T14:17:07.584Z,9.83
2018-04-12T14:19:35.388Z,10.47
2018-04-12T14:22:02.929Z,9.83
2018-04-12T14:24:30.506Z,9.40
2018-04-12T14:26:58.147Z,10.03
2018-04-12T14:29:25.809Z,9.03
2018-04-12T14:31:53.397Z,9.57
2018-04-12T14:34:21.108Z,9.83
2018-04-12T14:36:48.752Z,9.27
2018-04-12T14:39:16.443Z,9.43
2018-04-12T14:41:44.061Z,9.80
2018-04-12T14:44:11.647Z,10.03
2018-04-12T14:46:39.287Z,9.43
2018-04-12T14:49:07.028Z,9.93
2018-04-12T14:51:34.943Z,10.10
2018-04-12T14:54:02.558Z,9.87
2018-04-12T14:56:31.044Z,9.43
2018-04-12T14:58:58.624Z,9.80
2018-04-12T15:01:26.185Z,9.47
2018-04-12T15:03:53.906Z,9.83
2018-04-12T15:06:21.615Z,9.83
2018-04-12T15:08:49.290Z,9.63
2018-04-12T15:11:16.825Z,9.70
2018-04-12T15:13:44.427Z,10.07
2018-04-12T15:16:12.053Z,9.43
2018-04-12T15:18:39.770Z,10.10
2018-04-12T15:21:07.547Z,10.40
2018-04-12T15:23:35.084Z,9.30
2018-04-12T15:26:02.680Z,9.60
2018-04-12T15:28:30.418Z,9.90
2018-04-12T15:30:58.038Z,9.93
2018-04-12T15:33:25.644Z,10.27
2018-04-12T15:35:53.207Z,9.77
2018-04-12T15:38:20.868Z,9.67
2018-04-12T15:40:48.990Z,9.40
2018-04-12T15:43:17.165Z,10.17
2018-04-12T15:45:44.876Z,9.93
2018-04-12T15:48:12.532Z,9.67
2018-04-12T15:50:40.184Z,9.63
2018-04-12T15:53:07.871Z,9.20
2018-04-12T15:55:35.468Z,10.07
2018-04-12T15:58:03.124Z,10.10
2018-04-12T16:00:30.840Z,9.43
2018-04-12T16:02:58.484Z,9.93
2018-04-12T16:05:26.036Z,8.70
2018-04-12T16:07:53.783Z,9.07
2018-04-12T16:10:21.404Z,8.77
2018-04-12T16:12:49.109Z,9.40
2018-04-12T16:15:16.661Z,9.10
2018-04-12T16:17:44.229Z,8.53
2018-04-12T16:20:11.790Z,9.10
2018-04-12T16:22:39.348Z,8.57
2018-04-12T16:25:06.915Z,8.80
2018-04-12T16:27:34.508Z,9.67
2018-04-12T16:30:02.235Z,8.97
2018-04-12T16:32:29.844Z,8.57
2018-04-12T16:34:57.515Z,8.77
2018-04-12T16:37:25.209Z,9.53
2018-04-12T16:39:52.854Z,9.33
2018-04-12T16:42:20.441Z,8.70
2018-04-12T16:44:48.094Z,9.57
2018-04-12T16:47:15.820Z,8.97
2018-04-12T16:49:43.557Z,9.30
2018-04-12T16:52:11.216Z,8.40
2018-04-12T16:54:38.766Z,9.93
2018-04-12T16:57:06.570Z,8.63
2018-04-12T16:59:34.944Z,8.47
2018-04-12T17:02:02.627Z,8.20
2018-04-12T17:04:30.257Z,8.93
2018-04-12T17:06:58.180Z,8.53
2018-04-12T17:09:26.478Z,8.60
2018-04-12T17:11:54.030Z,8.53
2018-04-12T17:14:21.609Z,7.97
2018-04-12T17:16:49.337Z,7.83
2018-04-12T17:19:16.978Z,8.30
2018-04-12T17:21:47.176Z,8.40
2018-04-12T17:24:14.764Z,7.57
2018-04-12T17:26:42.381Z,7.73
2018-04-12T17:29:10.094Z,8.53
2018-04-12T17:31:37.763Z,7.80
2018-04-12T17:34:05.351Z,7.67
2018-04-12T17:36:32.903Z,8.00
2018-04-12T17:39:01.419Z,8.17
2018-04-12T17:41:29.093Z,8.40
2018-04-12T17:43:56.680Z,7.67
2018-04-12T17:46:24.248Z,6.93
2018-04-12T17:48:51.847Z,7.33
2018-04-12T17:51:19.741Z,7.77
2018-04-12T17:53:47.403Z,8.37
2018-04-12T17:56:14.967Z,12.37
2018-04-12T17:58:42.550Z,10.20
2018-04-12T18:01:11.081Z,7.07
2018-04-12T18:03:38.713Z,7.23
2018-04-12T18:06:06.291Z,7.43
2018-04-12T18:08:33.841Z,8.00
2018-04-12T18:11:01.412Z,7.93
2018-04-12T18:13:29.516Z,7.83
2018-04-12T18:15:57.159Z,6.83
2018-04-12T18:18:24.737Z,7.57
2018-04-12T18:20:52.307Z,8.30
2018-04-12T18:23:19.953Z,7.80
2018-04-12T18:25:47.549Z,7.63
2018-04-12T18:28:15.210Z,8.03
2018-04-12T18:30:42.757Z,7.43
2018-04-12T18:33:10.405Z,7.97
2018-04-12T18:35:38.362Z,7.67
2018-04-12T18:38:05.947Z,7.93
2018-04-12T18:40:33.515Z,7.47
2018-04-12T18:43:01.065Z,7.80
2018-04-12T18:45:28.633Z,7.73
2018-04-12T18:47:56.311Z,8.33
2018-04-12T18:50:24.004Z,7.17
2018-04-12T18:52:51.702Z,7.63
2018-04-12T18:55:19.286Z,8.37
2018-04-12T18:57:46.919Z,7.90
2018-04-12T19:00:14.506Z,7.30
2018-04-12T19:02:42.041Z,7.10
2018-04-12T19:05:09.667Z,7.53
2018-04-12T19:07:37.300Z,7.50
2018-04-12T19:10:04.934Z,7.70
2018-04-12T19:12:32.482Z,7.03
2018-04-12T19:15:00.051Z,7.30
2018-04-12T19:17:27.710Z,7.27
2018-04-12T19:19:56.285Z,6.70
2018-04-12T19:22:24.432Z,8.00
2018-04-12T19:24:52.048Z,7.10
2018-04-12T19:27:19.663Z,7.40
2018-04-12T19:29:47.285Z,7.03
2018-04-12T19:32:15.478Z,8.03
2018-04-12T19:34:43.198Z,7.77
2018-04-12T19:37:11.233Z,7.70
2018-04-12T19:39:38.829Z,7.60
2018-04-12T19:42:06.529Z,7.30
2018-04-12T19:44:34.117Z,7.43
2018-04-12T19:47:01.818Z,8.17
2018-04-12T19:49:29.568Z,8.57
2018-04-12T19:51:57.128Z,8.97
2018-04-12T19:54:24.829Z,7.50
2018-04-12T19:56:52.448Z,8.10
2018-04-12T19:59:20.021Z,8.60
2018-04-12T20:01:47.709Z,8.53
2018-04-12T20:04:15.365Z,7.90
2018-04-12T20:06:43.046Z,8.47
2018-04-12T20:09:10.761Z,8.93
2018-04-12T20:11:38.419Z,8.83
2018-04-12T20:14:06.202Z,7.80
2018-04-12T20:16:33.945Z,8.00
2018-04-12T20:19:02.097Z,8.33
2018-04-12T20:21:29.798Z,8.33
2018-04-12T20:23:57.689Z,8.43
2018-04-12T20:26:25.335Z,7.77
2018-04-12T20:28:52.902Z,7.40
2018-04-12T20:31:20.475Z,6.97
2018-04-12T20:33:48.061Z,6.67
2018-04-12T20:36:15.662Z,7.30
2018-04-12T20:38:44.135Z,7.37
2018-04-12T20:41:11.792Z,6.20
2018-04-12T20:43:39.388Z,7.97
2018-04-12T20:46:07.020Z,7.10
2018-04-12T20:48:34.735Z,7.43
2018-04-12T20:51:02.686Z,6.87
2018-04-12T20:53:30.365Z,6.83
2018-04-12T20:55:57.931Z,6.23
2018-04-12T20:58:25.520Z,6.27
2018-04-12T21:00:53.156Z,6.77
2018-04-12T21:03:20.774Z,6.50
2018-04-12T21:05:48.351Z,6.33
2018-04-12T21:08:15.981Z,6.90
2018-04-12T21:10:43.521Z,6.93
2018-04-12T21:13:11.357Z,6.47
2018-04-12T21:15:39.016Z,6.70
2018-04-12T21:18:06.630Z,6.57
2018-04-12T21:20:34.184Z,6.30
2018-04-12T21:23:01.827Z,6.47
2018-04-12T21:25:29.427Z,5.87
2018-04-12T21:27:57.021Z,6.67
2018-04-12T21:30:24.646Z,7.30
2018-04-12T21:32:52.363Z,6.63
2018-04-12T21:35:20.040Z,6.77
2018-04-12T21:37:47.596Z,6.40
2018-04-12T21:40:15.223Z,6.87
2018-04-12T21:42:42.880Z,7.57
2018-04-12T21:45:10.522Z,10.13
2018-04-12T21:47:38.175Z,8.90
2018-04-12T21:50:05.748Z,8.17
2018-04-12T21:52:33.316Z,11.70
2018-04-12T21:55:01.151Z,10.47
2018-04-12T21:57:28.796Z,11.93
2018-04-12T21:59:56.384Z,12.43
2018-04-12T22:02:23.987Z,13.27
2018-04-12T22:04:51.540Z,12.83
2018-04-12T22:07:19.085Z,12.03
2018-04-12T22:09:47.090Z,12.67
2018-04-12T22:12:14.642Z,13.30
2018-04-12T22:14:42.213Z,14.03
2018-04-12T22:17:09.737Z,14.57
2018-04-12T22:19:37.297Z,13.60
2018-04-12T22:22:04.848Z,15.13
2018-04-12T22:24:32.409Z,14.13
2018-04-12T22:26:59.972Z,15.73
2018-04-12T22:29:27.541Z,14.97
2018-04-12T22:31:55.110Z,14.90
2018-04-12T22:34:22.687Z,16.03
2018-04-12T22:36:50.267Z,14.37
2018-04-12T22:39:17.806Z,14.87
2018-04-12T22:41:45.402Z,15.47
2018-04-12T22:44:12.972Z,16.13
2018-04-12T22:46:40.535Z,15.97
2018-04-12T22:49:08.105Z,15.03
2018-04-12T22:51:35.641Z,17.30
2018-04-12T22:54:03.218Z,17.03
2018-04-12T22:56:30.754Z,16.50
2018-04-12T22:58:58.314Z,15.63
2018-04-12T23:01:25.881Z,17.77
2018-04-12T23:03:53.470Z,17.33
2018-04-12T23:06:21.016Z,16.27
2018-04-12T23:08:48.588Z,16.93
2018-04-12T23:11:16.145Z,17.63
2018-04-12T23:13:43.748Z,17.30
2018-04-12T23:16:11.298Z,18.40
2018-04-12T23:18:38.850Z,19.53
2018-04-12T23:21:06.442Z,19.13
2018-04-12T23:23:33.975Z,18.97
2018-04-12T23:26:01.557Z,19.73
2018-04-12T23:28:29.103Z,18.23
2018-04-12T23:30:56.675Z,19.57
2018-04-12T23:33:24.260Z,19.70
2018-04-12T23:35:51.828Z,20.30
2018-04-12T23:38:19.419Z,20.17
2018-04-12T23:40:47.002Z,21.43
2018-04-12T23:43:14.551Z,21.33
2018-04-12T23:45:42.162Z,19.93
2018-04-12T23:48:09.802Z,20.37
2018-04-12T23:50:37.356Z,21.00
2018-04-12T23:53:04.916Z,20.37
2018-04-12T23:55:32.477Z,19.43
2018-04-12T23:58:00.044Z,20.53
